sensor_id;sensor_type;location;lat;lon;timestamp;pressure;altitude;pressure_sealevel;temperature;humidity
48862;BME280;34681;49.188;-0.374;2023-06-05T00:01:43;101855.53;;;16.28;nan
48862;BME280;34681;49.188;-0.374;2023-06-05T00:04:09;101844.97;;;16.23;nan
48862;BME280;34681;49.188;-0.374;2023-06-05T00:06:34;101854.75;;;16.18;nan
48862;BME280;34681;49.188;-0.374;2023-06-05T00:09:00;101848.75;;;16.58;nan
48862;BME280;34681;49.188;-0.374;2023-06-05T00:11:26;101849.56;;;16.33;nan
48862;BME280;34681;49.188;-0.374;2023-06-05T00:13:52;101844.91;;;16.33;nan
48862;BME280;34681;49.188;-0.374;2023-06-05T00:16:18;101849.56;;;16.15;nan
48862;BME280;34681;49.188;-0.374;2023-06-05T00:18:43;101853.97;;;16.08;nan
48862;BME280;34681;49.188;-0.374;2023-06-05T00:21:11;101849.00;;;16.29;nan
48862;BME280;34681;49.188;-0.374;2023-06-05T00:23:37;101849.56;;;16.15;nan
48862;BME280;34681;49.188;-0.374;2023-06-05T00:26:02;101851.59;;;16.66;nan
48862;BME280;34681;49.188;-0.374;2023-06-05T00:28:28;101858.31;;;16.64;nan
48862;BME280;34681;49.188;-0.374;2023-06-05T00:30:53;101854.75;;;16.71;nan
48862;BME280;34681;49.188;-0.374;2023-06-05T00:33:18;101859.41;;;16.71;nan
48862;BME280;34681;49.188;-0.374;2023-06-05T00:35:44;101851.25;;;16.87;nan
48862;BME280;34681;49.188;-0.374;2023-06-05T00:38:09;101853.09;;;16.78;nan
48862;BME280;34681;49.188;-0.374;2023-06-05T00:40:35;101850.44;;;16.33;nan
48862;BME280;34681;49.188;-0.374;2023-06-05T00:43:01;101858.38;;;16.36;nan
48862;BME280;34681;49.188;-0.374;2023-06-05T00:45:27;101854.31;;;16.40;nan
48862;BME280;34681;49.188;-0.374;2023-06-05T00:47:52;101849.56;;;16.50;nan
48862;BME280;34681;49.188;-0.374;2023-06-05T00:50:18;101852.13;;;15.98;nan
48862;BME280;34681;49.188;-0.374;2023-06-05T00:52:47;101842.56;;;15.93;nan
48862;BME280;34681;49.188;-0.374;2023-06-05T00:55:13;101849.06;;;16.01;nan
48862;BME280;34681;49.188;-0.374;2023-06-05T00:57:39;101846.91;;;15.95;nan
48862;BME280;34681;49.188;-0.374;2023-06-05T01:00:06;101847.13;;;15.84;nan
48862;BME280;34681;49.188;-0.374;2023-06-05T01:02:35;101843.75;;;15.90;nan
48862;BME280;34681;49.188;-0.374;2023-06-05T01:05:02;101845.88;;;15.96;nan
48862;BME280;34681;49.188;-0.374;2023-06-05T01:07:31;101849.00;;;15.66;nan
48862;BME280;34681;49.188;-0.374;2023-06-05T01:09:59;101841.63;;;15.84;nan
48862;BME280;34681;49.188;-0.374;2023-06-05T01:12:36;101849.91;;;16.02;nan
48862;BME280;34681;49.188;-0.374;2023-06-05T01:15:05;101841.44;;;15.58;nan
48862;BME280;34681;49.188;-0.374;2023-06-05T01:17:31;101843.88;;;15.34;nan
48862;BME280;34681;49.188;-0.374;2023-06-05T01:20:00;101833.56;;;15.36;nan
48862;BME280;34681;49.188;-0.374;2023-06-05T01:22:28;101834.25;;;15.38;nan
48862;BME280;34681;49.188;-0.374;2023-06-05T01:24:53;101839.69;;;15.20;nan
48862;BME280;34681;49.188;-0.374;2023-06-05T01:27:26;101837.88;;;15.38;nan
48862;BME280;34681;49.188;-0.374;2023-06-05T01:30:08;101837.53;;;15.61;nan
48862;BME280;34681;49.188;-0.374;2023-06-05T01:32:49;101838.41;;;15.52;nan
48862;BME280;34681;49.188;-0.374;2023-06-05T01:35:19;101836.91;;;15.39;nan
48862;BME280;34681;49.188;-0.374;2023-06-05T01:37:47;101834.31;;;15.28;nan
48862;BME280;34681;49.188;-0.374;2023-06-05T01:40:19;101829.59;;;15.11;nan
48862;BME280;34681;49.188;-0.374;2023-06-05T01:42:45;101834.34;;;15.18;nan
48862;BME280;34681;49.188;-0.374;2023-06-05T01:45:12;101827.31;;;15.34;nan
48862;BME280;34681;49.188;-0.374;2023-06-05T01:47:39;101825.75;;;15.22;nan
48862;BME280;34681;49.188;-0.374;2023-06-05T01:50:06;101828.69;;;15.20;nan
48862;BME280;34681;49.188;-0.374;2023-06-05T01:52:36;101824.22;;;15.09;nan
48862;BME280;34681;49.188;-0.374;2023-06-05T01:55:05;101814.34;;;15.44;nan
48862;BME280;34681;49.188;-0.374;2023-06-05T01:57:31;101817.59;;;15.39;nan
48862;BME280;34681;49.188;-0.374;2023-06-05T01:59:59;101816.22;;;15.16;nan
48862;BME280;34681;49.188;-0.374;2023-06-05T02:02:26;101823.88;;;15.22;nan
48862;BME280;34681;49.188;-0.374;2023-06-05T02:04:54;101809.56;;;15.09;nan
48862;BME280;34681;49.188;-0.374;2023-06-05T02:07:20;101805.72;;;14.92;nan
48862;BME280;34681;49.188;-0.374;2023-06-05T02:09:46;101803.97;;;14.91;nan
48862;BME280;34681;49.188;-0.374;2023-06-05T02:12:12;101802.06;;;15.01;nan
48862;BME280;34681;49.188;-0.374;2023-06-05T02:14:39;101800.31;;;15.00;nan
48862;BME280;34681;49.188;-0.374;2023-06-05T02:17:10;101802.38;;;14.88;nan
48862;BME280;34681;49.188;-0.374;2023-06-05T02:19:41;101798.75;;;14.98;nan
48862;BME280;34681;49.188;-0.374;2023-06-05T02:22:07;101798.44;;;15.01;nan
48862;BME280;34681;49.188;-0.374;2023-06-05T02:24:33;101795.44;;;14.84;nan
48862;BME280;34681;49.188;-0.374;2023-06-05T02:26:58;101795.56;;;14.93;nan
48862;BME280;34681;49.188;-0.374;2023-06-05T02:29:23;101798.16;;;14.94;nan
48862;BME280;34681;49.188;-0.374;2023-06-05T02:31:49;101798.91;;;14.86;nan
48862;BME280;34681;49.188;-0.374;2023-06-05T02:34:14;101800.31;;;15.00;nan
48862;BME280;34681;49.188;-0.374;2023-06-05T02:36:42;101795.88;;;14.89;nan
48862;BME280;34681;49.188;-0.374;2023-06-05T02:39:10;101797.88;;;14.87;nan
48862;BME280;34681;49.188;-0.374;2023-06-05T02:41:36;101798.00;;;14.96;nan
48862;BME280;34681;49.188;-0.374;2023-06-05T02:44:01;101790.63;;;14.86;nan
48862;BME280;34681;49.188;-0.374;2023-06-05T02:46:26;101802.59;;;15.05;nan
48862;BME280;34681;49.188;-0.374;2023-06-05T02:48:52;101792.81;;;14.93;nan
48862;BME280;34681;49.188;-0.374;2023-06-05T02:51:17;101792.34;;;14.97;nan
48862;BME280;34681;49.188;-0.374;2023-06-05T02:53:42;101798.75;;;14.98;nan
48862;BME280;34681;49.188;-0.374;2023-06-05T02:56:08;101794.25;;;14.87;nan
48862;BME280;34681;49.188;-0.374;2023-06-05T02:58:33;101792.66;;;14.94;nan
48862;BME280;34681;49.188;-0.374;2023-06-05T03:00:59;101790.97;;;14.74;nan
48862;BME280;34681;49.188;-0.374;2023-06-05T03:03:31;101791.97;;;14.82;nan
48862;BME280;34681;49.188;-0.374;2023-06-05T03:05:58;101786.84;;;14.87;nan
48862;BME280;34681;49.188;-0.374;2023-06-05T03:08:33;101786.28;;;14.94;nan
48862;BME280;34681;49.188;-0.374;2023-06-05T03:10:59;101794.09;;;14.98;nan
48862;BME280;34681;49.188;-0.374;2023-06-05T03:13:25;101787.88;;;14.86;nan
48862;BME280;34681;49.188;-0.374;2023-06-05T03:15:50;101793.25;;;14.88;nan
48862;BME280;34681;49.188;-0.374;2023-06-05T03:18:19;101786.72;;;14.89;nan
48862;BME280;34681;49.188;-0.374;2023-06-05T03:20:44;101781.09;;;14.71;nan
48862;BME280;34681;49.188;-0.374;2023-06-05T03:23:10;101787.00;;;14.86;nan
48862;BME280;34681;49.188;-0.374;2023-06-05T03:25:35;101788.59;;;14.98;nan
48862;BME280;34681;49.188;-0.374;2023-06-05T03:28:01;101784.69;;;14.91;nan
48862;BME280;34681;49.188;-0.374;2023-06-05T03:30:26;101787.72;;;14.98;nan
48862;BME280;34681;49.188;-0.374;2023-06-05T03:32:51;101793.97;;;15.27;nan
48862;BME280;34681;49.188;-0.374;2023-06-05T03:35:17;101790.13;;;15.38;nan
48862;BME280;34681;49.188;-0.374;2023-06-05T03:37:43;101778.00;;;15.31;nan
48862;BME280;34681;49.188;-0.374;2023-06-05T03:40:09;101788.50;;;15.45;nan
48862;BME280;34681;49.188;-0.374;2023-06-05T03:42:34;101781.75;;;15.39;nan
48862;BME280;34681;49.188;-0.374;2023-06-05T03:44:59;101783.25;;;15.24;nan
48862;BME280;34681;49.188;-0.374;2023-06-05T03:47:25;101785.09;;;15.33;nan
48862;BME280;34681;49.188;-0.374;2023-06-05T03:49:53;101785.50;;;15.38;nan
48862;BME280;34681;49.188;-0.374;2023-06-05T03:52:20;101786.22;;;15.40;nan
48862;BME280;34681;49.188;-0.374;2023-06-05T03:54:49;101787.19;;;15.77;nan
48862;BME280;34681;49.188;-0.374;2023-06-05T03:57:19;101790.22;;;16.01;nan
48862;BME280;34681;49.188;-0.374;2023-06-05T03:59:45;101791.84;;;15.76;nan
48862;BME280;34681;49.188;-0.374;2023-06-05T04:02:12;101781.03;;;15.55;nan
48862;BME280;34681;49.188;-0.374;2023-06-05T04:04:37;101785.25;;;15.59;nan
48862;BME280;34681;49.188;-0.374;2023-06-05T04:07:03;101790.19;;;15.65;nan
48862;BME280;34681;49.188;-0.374;2023-06-05T04:09:29;101783.66;;;15.84;nan
48862;BME280;34681;49.188;-0.374;2023-06-05T04:11:54;101787.53;;;15.91;nan
48862;BME280;34681;49.188;-0.374;2023-06-05T04:14:20;101788.59;;;15.63;nan
48862;BME280;34681;49.188;-0.374;2023-06-05T04:16:45;101790.34;;;15.64;nan
48862;BME280;34681;49.188;-0.374;2023-06-05T04:19:12;101788.78;;;15.52;nan
48862;BME280;34681;49.188;-0.374;2023-06-05T04:21:38;101790.97;;;15.48;nan
48862;BME280;34681;49.188;-0.374;2023-06-05T04:24:04;101791.25;;;15.82;nan
48862;BME280;34681;49.188;-0.374;2023-06-05T04:26:40;101784.81;;;15.64;nan
48862;BME280;34681;49.188;-0.374;2023-06-05T04:29:09;101786.16;;;15.50;nan
48862;BME280;34681;49.188;-0.374;2023-06-05T04:31:42;101791.53;;;15.97;nan
48862;BME280;34681;49.188;-0.374;2023-06-05T04:34:08;101789.50;;;16.17;nan
48862;BME280;34681;49.188;-0.374;2023-06-05T04:36:34;101798.75;;;16.08;nan
48862;BME280;34681;49.188;-0.374;2023-06-05T04:39:00;101788.72;;;16.42;nan
48862;BME280;34681;49.188;-0.374;2023-06-05T04:41:32;101801.50;;;16.87;nan
48862;BME280;34681;49.188;-0.374;2023-06-05T04:43:58;101794.75;;;16.64;nan
48862;BME280;34681;49.188;-0.374;2023-06-05T04:46:25;101797.00;;;16.24;nan
48862;BME280;34681;49.188;-0.374;2023-06-05T04:48:51;101794.88;;;16.18;nan
48862;BME280;34681;49.188;-0.374;2023-06-05T04:51:21;101795.50;;;16.30;nan
48862;BME280;34681;49.188;-0.374;2023-06-05T04:53:47;101797.31;;;16.39;nan
48862;BME280;34681;49.188;-0.374;2023-06-05T04:56:16;101802.91;;;16.12;nan
48862;BME280;34681;49.188;-0.374;2023-06-05T04:58:41;101802.84;;;16.21;nan
48862;BME280;34681;49.188;-0.374;2023-06-05T05:01:07;101800.44;;;16.62;nan
48862;BME280;34681;49.188;-0.374;2023-06-05T05:03:33;101803.59;;;16.67;nan
48862;BME280;34681;49.188;-0.374;2023-06-05T05:05:59;101808.88;;;17.04;nan
48862;BME280;34681;49.188;-0.374;2023-06-05T05:08:24;101806.16;;;17.81;nan
48862;BME280;34681;49.188;-0.374;2023-06-05T05:10:50;101811.25;;;18.18;nan
48862;BME280;34681;49.188;-0.374;2023-06-05T05:13:15;101808.50;;;18.50;nan
48862;BME280;34681;49.188;-0.374;2023-06-05T05:15:40;101804.78;;;19.31;nan
48862;BME280;34681;49.188;-0.374;2023-06-05T05:18:05;101807.56;;;20.33;nan
48862;BME280;34681;49.188;-0.374;2023-06-05T05:20:31;101812.19;;;21.90;nan
48862;BME280;34681;49.188;-0.374;2023-06-05T05:22:59;101801.22;;;22.39;nan
48862;BME280;34681;49.188;-0.374;2023-06-05T05:25:24;101810.50;;;22.89;nan
48862;BME280;34681;49.188;-0.374;2023-06-05T05:27:50;101812.28;;;22.11;nan
48862;BME280;34681;49.188;-0.374;2023-06-05T05:30:16;101814.59;;;23.21;nan
48862;BME280;34681;49.188;-0.374;2023-06-05T05:32:41;101817.47;;;23.62;nan
48862;BME280;34681;49.188;-0.374;2023-06-05T05:35:07;101816.63;;;23.34;nan
48862;BME280;34681;49.188;-0.374;2023-06-05T05:37:32;101816.94;;;23.87;nan
48862;BME280;34681;49.188;-0.374;2023-06-05T05:39:58;101812.19;;;23.87;nan
48862;BME280;34681;49.188;-0.374;2023-06-05T05:42:23;101817.03;;;23.65;nan
48862;BME280;34681;49.188;-0.374;2023-06-05T05:44:48;101817.13;;;23.85;nan
48862;BME280;34681;49.188;-0.374;2023-06-05T05:47:13;101814.03;;;22.83;nan
48862;BME280;34681;49.188;-0.374;2023-06-05T05:49:39;101814.75;;;24.43;nan
48862;BME280;34681;49.188;-0.374;2023-06-05T05:52:04;101816.34;;;24.04;nan
48862;BME280;34681;49.188;-0.374;2023-06-05T05:54:30;101813.03;;;23.46;nan
48862;BME280;34681;49.188;-0.374;2023-06-05T05:56:55;101816.06;;;24.87;nan
48862;BME280;34681;49.188;-0.374;2023-06-05T05:59:21;101819.44;;;25.62;nan
48862;BME280;34681;49.188;-0.374;2023-06-05T06:01:47;101807.91;;;25.25;nan
48862;BME280;34681;49.188;-0.374;2023-06-05T06:04:13;101804.41;;;24.37;nan
48862;BME280;34681;49.188;-0.374;2023-06-05T06:06:39;101806.75;;;25.46;nan
48862;BME280;34681;49.188;-0.374;2023-06-05T06:09:05;101807.06;;;24.91;nan
48862;BME280;34681;49.188;-0.374;2023-06-05T06:11:33;101814.59;;;25.89;nan
48862;BME280;34681;49.188;-0.374;2023-06-05T06:13:59;101818.47;;;24.83;nan
48862;BME280;34681;49.188;-0.374;2023-06-05T06:16:25;101822.78;;;26.42;nan
48862;BME280;34681;49.188;-0.374;2023-06-05T06:18:50;101829.84;;;27.51;nan
48862;BME280;34681;49.188;-0.374;2023-06-05T06:21:16;101819.31;;;26.71;nan
48862;BME280;34681;49.188;-0.374;2023-06-05T06:23:41;101829.09;;;27.80;nan
48862;BME280;34681;49.188;-0.374;2023-06-05T06:26:07;101827.53;;;28.63;nan
48862;BME280;34681;49.188;-0.374;2023-06-05T06:28:33;101830.81;;;28.60;nan
48862;BME280;34681;49.188;-0.374;2023-06-05T06:30:58;101836.41;;;29.95;nan
48862;BME280;34681;49.188;-0.374;2023-06-05T06:33:23;101829.97;;;31.30;nan
48862;BME280;34681;49.188;-0.374;2023-06-05T06:35:49;101828.53;;;28.68;nan
48862;BME280;34681;49.188;-0.374;2023-06-05T06:38:15;101848.00;;;30.22;nan
48862;BME280;34681;49.188;-0.374;2023-06-05T06:40:41;101832.16;;;29.81;nan
48862;BME280;34681;49.188;-0.374;2023-06-05T06:43:07;101832.75;;;31.47;nan
48862;BME280;34681;49.188;-0.374;2023-06-05T06:45:32;101829.13;;;32.88;nan
48862;BME280;34681;49.188;-0.374;2023-06-05T06:47:57;101818.91;;;33.24;nan
48862;BME280;34681;49.188;-0.374;2023-06-05T06:50:23;101833.78;;;34.62;nan
48862;BME280;34681;49.188;-0.374;2023-06-05T06:52:48;101838.03;;;34.49;nan
48862;BME280;34681;49.188;-0.374;2023-06-05T06:55:13;101826.84;;;32.85;nan
48862;BME280;34681;49.188;-0.374;2023-06-05T06:57:39;101828.28;;;33.67;nan
48862;BME280;34681;49.188;-0.374;2023-06-05T07:00:05;101831.66;;;34.17;nan
48862;BME280;34681;49.188;-0.374;2023-06-05T07:02:34;101836.25;;;33.28;nan
48862;BME280;34681;49.188;-0.374;2023-06-05T07:05:00;101814.84;;;30.29;nan
48862;BME280;34681;49.188;-0.374;2023-06-05T07:07:25;101827.16;;;29.36;nan
48862;BME280;34681;49.188;-0.374;2023-06-05T07:09:51;101829.72;;;30.25;nan
48862;BME280;34681;49.188;-0.374;2023-06-05T07:12:17;101830.22;;;29.23;nan
48862;BME280;34681;49.188;-0.374;2023-06-05T07:14:45;101835.34;;;29.02;nan
48862;BME280;34681;49.188;-0.374;2023-06-05T07:17:10;101850.03;;;29.98;nan
48862;BME280;34681;49.188;-0.374;2023-06-05T07:19:36;101838.31;;;29.31;nan
48862;BME280;34681;49.188;-0.374;2023-06-05T07:22:02;101843.81;;;30.25;nan
48862;BME280;34681;49.188;-0.374;2023-06-05T07:24:29;101836.88;;;30.61;nan
48862;BME280;34681;49.188;-0.374;2023-06-05T07:26:57;101834.72;;;28.47;nan
48862;BME280;34681;49.188;-0.374;2023-06-05T07:29:23;101832.19;;;28.57;nan
48862;BME280;34681;49.188;-0.374;2023-06-05T07:31:50;101841.47;;;29.81;nan
48862;BME280;34681;49.188;-0.374;2023-06-05T07:34:18;101840.41;;;32.56;nan
48862;BME280;34681;49.188;-0.374;2023-06-05T07:36:45;101853.13;;;33.45;nan
48862;BME280;34681;49.188;-0.374;2023-06-05T07:39:10;101850.88;;;35.33;nan
48862;BME280;34681;49.188;-0.374;2023-06-05T07:41:37;101849.41;;;35.77;nan
48862;BME280;34681;49.188;-0.374;2023-06-05T07:44:02;101859.03;;;35.91;nan
48862;BME280;34681;49.188;-0.374;2023-06-05T07:46:27;101848.31;;;35.52;nan
48862;BME280;34681;49.188;-0.374;2023-06-05T07:48:53;101863.19;;;39.18;nan
48862;BME280;34681;49.188;-0.374;2023-06-05T07:51:18;101855.34;;;39.70;nan
48862;BME280;34681;49.188;-0.374;2023-06-05T07:53:44;101857.63;;;38.51;nan
48862;BME280;34681;49.188;-0.374;2023-06-05T07:56:10;101855.03;;;40.90;nan
48862;BME280;34681;49.188;-0.374;2023-06-05T07:58:37;101854.84;;;40.09;nan
48862;BME280;34681;49.188;-0.374;2023-06-05T08:01:02;101851.69;;;40.60;nan
48862;BME280;34681;49.188;-0.374;2023-06-05T08:03:29;101846.84;;;40.83;nan
48862;BME280;34681;49.188;-0.374;2023-06-05T08:05:54;101842.22;;;39.82;nan
48862;BME280;34681;49.188;-0.374;2023-06-05T08:08:19;101847.28;;;42.15;nan
48862;BME280;34681;49.188;-0.374;2023-06-05T08:10:45;101842.06;;;42.17;nan
48862;BME280;34681;49.188;-0.374;2023-06-05T08:13:10;101851.00;;;41.44;nan
48862;BME280;34681;49.188;-0.374;2023-06-05T08:15:36;101830.00;;;39.91;nan
48862;BME280;34681;49.188;-0.374;2023-06-05T08:18:01;101826.88;;;38.81;nan
48862;BME280;34681;49.188;-0.374;2023-06-05T08:20:27;101817.22;;;39.55;nan
48862;BME280;34681;49.188;-0.374;2023-06-05T08:22:54;101821.97;;;39.00;nan
48862;BME280;34681;49.188;-0.374;2023-06-05T08:25:20;101825.09;;;38.66;nan
48862;BME280;34681;49.188;-0.374;2023-06-05T08:27:45;101811.44;;;37.24;nan
48862;BME280;34681;49.188;-0.374;2023-06-05T08:30:10;101819.41;;;36.05;nan
48862;BME280;34681;49.188;-0.374;2023-06-05T08:32:36;101811.19;;;36.92;nan
48862;BME280;34681;49.188;-0.374;2023-06-05T08:35:01;101811.69;;;37.28;nan
48862;BME280;34681;49.188;-0.374;2023-06-05T08:37:27;101825.69;;;36.56;nan
48862;BME280;34681;49.188;-0.374;2023-06-05T08:39:53;101819.41;;;36.59;nan
48862;BME280;34681;49.188;-0.374;2023-06-05T08:42:19;101814.09;;;35.78;nan
48862;BME280;34681;49.188;-0.374;2023-06-05T08:44:48;101811.66;;;35.10;nan
48862;BME280;34681;49.188;-0.374;2023-06-05T08:47:15;101816.72;;;35.38;nan
48862;BME280;34681;49.188;-0.374;2023-06-05T08:49:41;101818.06;;;36.46;nan
48862;BME280;34681;49.188;-0.374;2023-06-05T08:52:07;101806.16;;;36.29;nan
48862;BME280;34681;49.188;-0.374;2023-06-05T08:54:38;101813.28;;;35.67;nan
48862;BME280;34681;49.188;-0.374;2023-06-05T08:57:07;101812.59;;;34.02;nan
48862;BME280;34681;49.188;-0.374;2023-06-05T08:59:33;101797.38;;;31.45;nan
48862;BME280;34681;49.188;-0.374;2023-06-05T09:01:58;101803.00;;;30.15;nan
48862;BME280;34681;49.188;-0.374;2023-06-05T09:04:24;101802.50;;;29.67;nan
48862;BME280;34681;49.188;-0.374;2023-06-05T09:06:51;101792.47;;;29.35;nan
48862;BME280;34681;49.188;-0.374;2023-06-05T09:09:19;101792.50;;;28.59;nan
48862;BME280;34681;49.188;-0.374;2023-06-05T09:11:44;101791.44;;;27.99;nan
48862;BME280;34681;49.188;-0.374;2023-06-05T09:14:10;101798.97;;;28.47;nan
48862;BME280;34681;49.188;-0.374;2023-06-05T09:16:42;101789.59;;;26.88;nan
48862;BME280;34681;49.188;-0.374;2023-06-05T09:19:12;101792.78;;;25.97;nan
48862;BME280;34681;49.188;-0.374;2023-06-05T09:21:39;101795.00;;;25.89;nan
48862;BME280;34681;49.188;-0.374;2023-06-05T09:26:56;101793.81;;;26.10;nan
48862;BME280;34681;49.188;-0.374;2023-06-05T09:29:42;101787.16;;;26.42;nan
48862;BME280;34681;49.188;-0.374;2023-06-05T09:32:18;101802.69;;;26.07;nan
48862;BME280;34681;49.188;-0.374;2023-06-05T09:34:55;101805.34;;;25.17;nan
48862;BME280;34681;49.188;-0.374;2023-06-05T09:37:35;101802.03;;;24.41;nan
48862;BME280;34681;49.188;-0.374;2023-06-05T09:40:01;101807.66;;;24.47;nan
48862;BME280;34681;49.188;-0.374;2023-06-05T09:42:33;101808.50;;;23.80;nan
48862;BME280;34681;49.188;-0.374;2023-06-05T09:44:59;101802.22;;;23.02;nan
48862;BME280;34681;49.188;-0.374;2023-06-05T09:47:25;101793.22;;;22.57;nan
48862;BME280;34681;49.188;-0.374;2023-06-05T09:49:50;101800.06;;;22.55;nan
48862;BME280;34681;49.188;-0.374;2023-06-05T09:52:16;101801.75;;;23.26;nan
48862;BME280;34681;49.188;-0.374;2023-06-05T09:54:43;101795.63;;;23.10;nan
48862;BME280;34681;49.188;-0.374;2023-06-05T09:57:11;101786.66;;;22.65;nan
48862;BME280;34681;49.188;-0.374;2023-06-05T09:59:53;101788.13;;;22.39;nan
48862;BME280;34681;49.188;-0.374;2023-06-05T10:02:24;101796.03;;;22.36;nan
48862;BME280;34681;49.188;-0.374;2023-06-05T10:04:58;101782.56;;;22.18;nan
48862;BME280;34681;49.188;-0.374;2023-06-05T10:07:24;101783.03;;;22.07;nan
48862;BME280;34681;49.188;-0.374;2023-06-05T10:09:50;101778.38;;;22.29;nan
48862;BME280;34681;49.188;-0.374;2023-06-05T10:12:16;101783.34;;;22.12;nan
48862;BME280;34681;49.188;-0.374;2023-06-05T10:14:42;101808.72;;;21.37;nan
48862;BME280;34681;49.188;-0.374;2023-06-05T10:17:10;101793.09;;;20.98;nan
48862;BME280;34681;49.188;-0.374;2023-06-05T10:19:36;101795.72;;;21.14;nan
48862;BME280;34681;49.188;-0.374;2023-06-05T10:22:02;101789.47;;;21.12;nan
48862;BME280;34681;49.188;-0.374;2023-06-05T10:24:52;101781.69;;;21.67;nan
48862;BME280;34681;49.188;-0.374;2023-06-05T10:32:38;101784.06;;;20.81;nan
48862;BME280;34681;49.188;-0.374;2023-06-05T10:40:29;101782.06;;;20.29;nan
48862;BME280;34681;49.188;-0.374;2023-06-05T10:43:25;101777.75;;;20.04;nan
48862;BME280;34681;49.188;-0.374;2023-06-05T10:45:51;101783.44;;;19.79;nan
48862;BME280;34681;49.188;-0.374;2023-06-05T10:48:17;101775.16;;;19.94;nan
48862;BME280;34681;49.188;-0.374;2023-06-05T10:50:43;101789.03;;;20.25;nan
48862;BME280;34681;49.188;-0.374;2023-06-05T10:53:46;101803.16;;;20.46;nan
48862;BME280;34681;49.188;-0.374;2023-06-05T10:59:15;101779.31;;;19.67;nan
48862;BME280;34681;49.188;-0.374;2023-06-05T11:01:40;101777.59;;;19.66;nan
48862;BME280;34681;49.188;-0.374;2023-06-05T11:04:06;101780.59;;;19.48;nan
48862;BME280;34681;49.188;-0.374;2023-06-05T11:06:31;101777.16;;;19.46;nan
48862;BME280;34681;49.188;-0.374;2023-06-05T11:09:13;101787.69;;;19.51;nan
48862;BME280;34681;49.188;-0.374;2023-06-05T11:17:28;101774.63;;;19.28;nan
48862;BME280;34681;49.188;-0.374;2023-06-05T11:19:53;101783.59;;;19.39;nan
48862;BME280;34681;49.188;-0.374;2023-06-05T11:22:19;101775.28;;;19.39;nan
48862;BME280;34681;49.188;-0.374;2023-06-05T11:24:45;101787.13;;;19.24;nan
48862;BME280;34681;49.188;-0.374;2023-06-05T11:27:42;101781.06;;;19.21;nan
48862;BME280;34681;49.188;-0.374;2023-06-05T11:30:22;101776.22;;;19.70;nan
48862;BME280;34681;49.188;-0.374;2023-06-05T11:32:49;101769.69;;;19.86;nan
48862;BME280;34681;49.188;-0.374;2023-06-05T11:35:25;101776.59;;;19.90;nan
48862;BME280;34681;49.188;-0.374;2023-06-05T11:38:20;101764.81;;;19.88;nan
48862;BME280;34681;49.188;-0.374;2023-06-05T11:40:48;101778.16;;;19.61;nan
48862;BME280;34681;49.188;-0.374;2023-06-05T11:43:14;101775.63;;;19.35;nan
48862;BME280;34681;49.188;-0.374;2023-06-05T11:45:42;101776.22;;;19.15;nan
48862;BME280;34681;49.188;-0.374;2023-06-05T11:48:14;101775.88;;;19.18;nan
48862;BME280;34681;49.188;-0.374;2023-06-05T11:50:54;101794.41;;;19.17;nan
48862;BME280;34681;49.188;-0.374;2023-06-05T11:53:20;101781.09;;;19.13;nan
48862;BME280;34681;49.188;-0.374;2023-06-05T11:55:46;101774.69;;;19.59;nan
48862;BME280;34681;49.188;-0.374;2023-06-05T11:58:23;101773.47;;;19.62;nan
48862;BME280;34681;49.188;-0.374;2023-06-05T12:00:50;101776.44;;;19.44;nan
48862;BME280;34681;49.188;-0.374;2023-06-05T12:03:19;101774.09;;;19.25;nan
48862;BME280;34681;49.188;-0.374;2023-06-05T12:05:47;101766.91;;;19.47;nan
48862;BME280;34681;49.188;-0.374;2023-06-05T12:08:27;101775.25;;;19.47;nan
48862;BME280;34681;49.188;-0.374;2023-06-05T12:10:54;101762.94;;;19.41;nan
48862;BME280;34681;49.188;-0.374;2023-06-05T12:13:21;101762.75;;;19.43;nan
48862;BME280;34681;49.188;-0.374;2023-06-05T12:15:57;101760.50;;;19.46;nan
48862;BME280;34681;49.188;-0.374;2023-06-05T12:18:34;101759.28;;;19.49;nan
48862;BME280;34681;49.188;-0.374;2023-06-05T12:21:00;101751.09;;;19.55;nan
48862;BME280;34681;49.188;-0.374;2023-06-05T12:23:28;101757.94;;;19.36;nan
48862;BME280;34681;49.188;-0.374;2023-06-05T12:26:03;101766.91;;;19.47;nan
48862;BME280;34681;49.188;-0.374;2023-06-05T12:28:29;101754.00;;;19.70;nan
48862;BME280;34681;49.188;-0.374;2023-06-05T12:30:56;101756.69;;;19.47;nan
48862;BME280;34681;49.188;-0.374;2023-06-05T12:33:25;101760.84;;;19.43;nan
48862;BME280;34681;49.188;-0.374;2023-06-05T12:38:28;101763.66;;;19.35;nan
48862;BME280;34681;49.188;-0.374;2023-06-05T12:40:53;101750.13;;;19.40;nan
48862;BME280;34681;49.188;-0.374;2023-06-05T12:43:19;101756.22;;;19.27;nan
48862;BME280;34681;49.188;-0.374;2023-06-05T12:45:44;101749.78;;;19.35;nan
48862;BME280;34681;49.188;-0.374;2023-06-05T12:48:09;101749.84;;;19.19;nan
48862;BME280;34681;49.188;-0.374;2023-06-05T12:50:37;101763.00;;;19.25;nan
48862;BME280;34681;49.188;-0.374;2023-06-05T12:53:03;101751.69;;;19.34;nan
48862;BME280;34681;49.188;-0.374;2023-06-05T12:55:28;101746.59;;;19.07;nan
48862;BME280;34681;49.188;-0.374;2023-06-05T12:57:53;101736.56;;;19.06;nan
48862;BME280;34681;49.188;-0.374;2023-06-05T13:00:19;101762.59;;;18.97;nan
48862;BME280;34681;49.188;-0.374;2023-06-05T13:02:44;101730.22;;;18.73;nan
48862;BME280;34681;49.188;-0.374;2023-06-05T13:05:10;101733.38;;;19.17;nan
48862;BME280;34681;49.188;-0.374;2023-06-05T13:07:37;101757.22;;;18.95;nan
48862;BME280;34681;49.188;-0.374;2023-06-05T13:10:04;101739.75;;;18.62;nan
48862;BME280;34681;49.188;-0.374;2023-06-05T13:12:30;101733.88;;;18.73;nan
48862;BME280;34681;49.188;-0.374;2023-06-05T13:14:56;101733.88;;;18.73;nan
48862;BME280;34681;49.188;-0.374;2023-06-05T13:17:21;101718.75;;;18.84;nan
48862;BME280;34681;49.188;-0.374;2023-06-05T13:19:48;101730.00;;;18.99;nan
48862;BME280;34681;49.188;-0.374;2023-06-05T13:22:14;101728.50;;;19.19;nan
48862;BME280;34681;49.188;-0.374;2023-06-05T13:24:40;101727.38;;;19.05;nan
48862;BME280;34681;49.188;-0.374;2023-06-05T13:27:05;101752.91;;;18.85;nan